Time;durP1;ratioP1;P1;durP2;ratioP2;P2;SDS_P1;SDS_P2;PMS_P1;PMS_P2;Temp;Humidity;BMP_temperature;BMP_pressure;BME280_temperature;BME280_humidity;BME280_pressure;Samples;Min_cycle;Max_cycle;Signal;HPM_P1;HPM_P2
2022/01/27 00:01:06;;;;;;;63.20;22.30;;;;;-1.90;98157.00;;;;111759;1241;41240;-61
2022/01/27 00:03:59;;;;;;;58.30;21.20;;;;;-1.90;98162.60;;;;111664;1241;41253;-62
2022/01/27 00:06:25;;;;;;;57.90;22.20;;;;;-1.90;98160.00;;;;111714;1241;41779;-62
2022/01/27 00:09:01;;;;;;;60.00;21.50;;;;;-1.90;98166.60;;;;111657;1241;41267;-62
2022/01/27 00:11:31;;;;;;;63.90;22.40;;;;;-1.88;98165.80;;;;111732;1241;41142;-63
2022/01/27 00:14:02;;;;;;;62.60;22.20;;;;;-1.90;98168.00;;;;111857;1241;41314;-63
2022/01/27 00:16:38;;;;;;;58.20;23.00;;;;;-1.90;98167.60;;;;111768;1241;41160;-63
2022/01/27 00:19:10;;;;;;;61.70;22.50;;;;;-1.90;98170.80;;;;111825;1241;41393;-60
2022/01/27 00:21:39;;;;;;;60.20;22.90;;;;;-1.90;98176.40;;;;111558;1242;41138;-62
2022/01/27 00:24:09;;;;;;;65.00;22.80;;;;;-1.88;98167.60;;;;111825;1241;41620;-62
2022/01/27 00:26:40;;;;;;;60.50;23.20;;;;;-1.84;98172.20;;;;111765;1241;41134;-61
2022/01/27 00:29:09;;;;;;;;;;;;;-1.80;98177.40;;;;111573;1241;41158;-64
2022/01/27 00:31:39;;;;;;;67.40;24.70;;;;;-1.80;98173.20;;;;111843;1242;41137;-61
2022/01/27 00:34:08;;;;;;;63.40;23.90;;;;;-1.80;98174.00;;;;111797;1243;41410;-60
2022/01/27 00:36:39;;;;;;;64.10;24.10;;;;;-1.80;98169.60;;;;111807;1243;41125;-62
2022/01/27 00:39:09;;;;;;;65.80;24.20;;;;;-1.80;98169.80;;;;111749;1242;41247;-62
2022/01/27 00:41:39;;;;;;;62.00;24.30;;;;;-1.80;98164.00;;;;111846;1241;42130;-62
2022/01/27 00:44:09;;;;;;;63.30;23.60;;;;;-1.76;98168.80;;;;111789;1242;41246;-62
2022/01/27 00:46:38;;;;;;;58.00;22.10;;;;;-1.70;98166.60;;;;111766;1241;41470;-61
2022/01/27 00:49:08;;;;;;;60.40;22.40;;;;;-1.70;98167.40;;;;111786;1241;42060;-61
2022/01/27 00:51:42;;;;;;;57.50;24.10;;;;;-1.70;98160.60;;;;111832;1241;42304;-62
2022/01/27 00:54:20;;;;;;;62.70;24.70;;;;;-1.80;98163.40;;;;111851;1241;41344;-60
2022/01/27 00:59:46;;;;;;;64.30;24.10;;;;;-1.90;98168.20;;;;111820;1242;41134;-59
2022/01/27 01:05:01;;;;;;;58.00;22.70;;;;;-1.90;98172.00;;;;111781;1241;41120;-59
2022/01/27 01:07:36;;;;;;;63.20;23.80;;;;;-1.88;98165.40;;;;111882;1241;41202;-61
2022/01/27 01:15:46;;;;;;;56.80;22.00;;;;;-1.80;98153.60;;;;111735;1241;41250;-63
2022/01/27 01:18:32;;;;;;;58.50;21.80;;;;;-1.80;98155.00;;;;111513;1244;41612;-59
2022/01/27 01:34:44;;;;;;;65.90;25.10;;;;;-1.70;98157.80;;;;111855;1241;41173;-61
2022/01/27 01:37:18;;;;;;;65.60;25.00;;;;;-1.70;98159.40;;;;111794;1241;41375;-61
2022/01/27 01:39:47;;;;;;;60.60;23.40;;;;;-1.70;98154.40;;;;111850;1241;41152;-61
2022/01/27 01:42:18;;;;;;;67.20;24.90;;;;;-1.70;98158.60;;;;111787;1241;41782;-64
2022/01/27 01:44:49;;;;;;;63.80;23.80;;;;;-1.70;98161.80;;;;111563;1242;41248;-63
2022/01/27 01:47:20;;;;;;;63.60;22.80;;;;;-1.70;98162.20;;;;111681;1243;41132;-62
2022/01/27 01:49:50;;;;;;;60.20;24.00;;;;;-1.70;98158.60;;;;111709;1241;41816;-62
2022/01/27 01:52:20;;;;;;;65.20;24.20;;;;;-1.68;98154.20;;;;111755;1241;41149;-62
2022/01/27 01:54:50;;;;;;;61.00;23.10;;;;;-1.70;98153.00;;;;111723;1241;41146;-62
2022/01/27 01:57:19;;;;;;;62.30;22.10;;;;;-1.70;98150.60;;;;111423;1244;41156;-64
2022/01/27 01:59:50;;;;;;;59.60;22.70;;;;;-1.70;98142.20;;;;111440;1244;41162;-65
2022/01/27 02:02:20;;;;;;;59.90;22.60;;;;;-1.70;98143.40;;;;111514;1243;41259;-62
2022/01/27 02:04:49;;;;;;;54.00;22.80;;;;;-1.70;98147.20;;;;111589;1243;41156;-63
2022/01/27 02:07:42;;;;;;;55.00;19.70;;;;;-1.70;98142.00;;;;111321;1245;40995;-62
2022/01/27 02:18:23;;;;;;;46.80;19.50;;;;;-1.70;98140.80;;;;111834;1241;41330;-62
2022/01/27 02:20:53;;;;;;;55.90;20.50;;;;;-1.70;98137.20;;;;111842;1241;41903;-62
2022/01/27 02:23:23;;;;;;;55.00;21.80;;;;;-1.70;98143.40;;;;111686;1242;41114;-61
2022/01/27 02:25:54;;;;;;;60.10;23.10;;;;;-1.70;98140.60;;;;111788;1241;41248;-60
2022/01/27 02:28:25;;;;;;;59.50;24.70;;;;;-1.70;98139.80;;;;111641;1242;42472;-63
2022/01/27 02:30:58;;;;;;;63.40;24.00;;;;;-1.70;98137.20;;;;111717;1243;41752;-62
2022/01/27 02:33:33;;;;;;;60.10;24.40;;;;;-1.70;98133.60;;;;111661;1243;41247;-60
2022/01/27 02:36:04;;;;;;;66.30;24.30;;;;;-1.70;98134.40;;;;111734;1241;41591;-61
2022/01/27 02:38:35;;;;;;;68.10;25.30;;;;;-1.70;98138.40;;;;111705;1241;41134;-62
2022/01/27 02:41:07;;;;;;;58.70;21.40;;;;;-1.70;98132.80;;;;111687;1241;41236;-63
2022/01/27 02:43:37;;;;;;;61.80;22.30;;;;;-1.64;98136.80;;;;111674;1242;41622;-62
2022/01/27 02:46:18;;;;;;;61.70;23.00;;;;;-1.64;98135.20;;;;111805;1241;41136;-62
2022/01/27 02:48:48;;;;;;;61.50;22.50;;;;;-1.60;98136.80;;;;111826;1242;41156;-62
2022/01/27 02:51:18;;;;;;;60.30;22.80;;;;;-1.60;98136.40;;;;111796;1241;41190;-62
2022/01/27 02:53:50;;;;;;;59.50;24.50;;;;;-1.60;98129.40;;;;111784;1241;41246;-63
2022/01/27 02:56:20;;;;;;;65.60;24.40;;;;;-1.60;98125.20;;;;111769;1241;42152;-62
2022/01/27 02:58:51;;;;;;;55.40;22.10;;;;;-1.60;98128.60;;;;111701;1241;42925;-62
2022/01/27 03:01:21;;;;;;;60.90;22.30;;;;;-1.60;98114.60;;;;111781;1241;42118;-62
2022/01/27 03:03:51;;;;;;;58.30;23.50;;;;;-1.60;98116.00;;;;111670;1241;41590;-61
2022/01/27 03:06:22;;;;;;;61.60;24.40;;;;;-1.64;98113.60;;;;111843;1242;41129;-63
2022/01/27 03:08:52;;;;;;;65.40;25.40;;;;;-1.70;98125.60;;;;111910;1241;41486;-62
2022/01/27 03:11:47;;;;;;;59.20;23.30;;;;;-1.70;98127.00;;;;111836;1241;41514;-59
2022/01/27 03:14:21;;;;;;;59.00;21.70;;;;;-1.70;98129.20;;;;111943;1241;41191;-61
2022/01/27 03:16:57;;;;;;;67.70;24.90;;;;;-1.70;98123.20;;;;111849;1241;41156;-60
2022/01/27 03:19:28;;;;;;;65.90;24.20;;;;;-1.70;98129.20;;;;111781;1242;41628;-62
2022/01/27 03:22:02;;;;;;;62.90;25.70;;;;;-1.70;98127.20;;;;111838;1241;41129;-61
2022/01/27 03:24:32;;;;;;;62.20;22.90;;;;;-1.70;98129.00;;;;111790;1241;41603;-62
2022/01/27 03:27:15;;;;;;;65.10;24.30;;;;;-1.68;98124.40;;;;111866;1241;41132;-61
2022/01/27 03:29:46;;;;;;;56.10;23.60;;;;;-1.60;98125.80;;;;111900;1241;41413;-63
2022/01/27 03:32:16;;;;;;;64.40;24.80;;;;;-1.60;98113.00;;;;111803;1241;41127;-62
2022/01/27 03:34:46;;;;;;;61.20;23.20;;;;;-1.60;98111.60;;;;111801;1241;41161;-62
2022/01/27 03:37:16;;;;;;;64.80;25.00;;;;;-1.60;98107.20;;;;111739;1241;41260;-62
2022/01/27 03:39:45;;;;;;;59.70;23.90;;;;;-1.60;98107.20;;;;111651;1244;41610;-62
2022/01/27 03:42:15;;;;;;;63.90;22.90;;;;;-1.60;98106.00;;;;111811;1241;42364;-60
2022/01/27 03:44:45;;;;;;;55.80;22.50;;;;;-1.60;98107.80;;;;111779;1242;41904;-60
2022/01/27 03:47:15;;;;;;;56.20;22.50;;;;;-1.60;98111.60;;;;111580;1241;41291;-62
2022/01/27 03:49:46;;;;;;;58.30;22.00;;;;;-1.60;98112.80;;;;111617;1241;41429;-61
2022/01/27 03:52:18;;;;;;;58.50;23.80;;;;;-1.60;98115.40;;;;111506;1243;41453;-62
2022/01/27 03:54:48;;;;;;;60.50;23.50;;;;;-1.60;98114.60;;;;111875;1241;42174;-63
2022/01/27 03:57:18;;;;;;;55.00;20.60;;;;;-1.60;98120.20;;;;111764;1241;42168;-62
2022/01/27 03:59:48;;;;;;;63.40;23.40;;;;;-1.60;98116.40;;;;111668;1241;41910;-61
2022/01/27 04:02:19;;;;;;;59.60;21.80;;;;;-1.60;98120.60;;;;111817;1241;41137;-64
2022/01/27 04:04:49;;;;;;;71.40;25.30;;;;;-1.60;98116.80;;;;111804;1241;41143;-63
2022/01/27 04:07:18;;;;;;;72.50;26.00;;;;;-1.60;98109.40;;;;111799;1241;41161;-63
2022/01/27 04:09:49;;;;;;;65.90;25.10;;;;;-1.60;98112.80;;;;111862;1241;41404;-61
2022/01/27 04:12:19;;;;;;;63.20;24.60;;;;;-1.60;98112.20;;;;111465;1244;41916;-61
2022/01/27 04:14:49;;;;;;;66.10;26.90;;;;;-1.60;98114.20;;;;111918;1241;41592;-61
2022/01/27 04:17:19;;;;;;;74.30;26.30;;;;;-1.60;98113.00;;;;111765;1241;41186;-64
2022/01/27 04:19:49;;;;;;;64.90;25.20;;;;;-1.60;98111.80;;;;111395;1244;42083;-60
2022/01/27 04:22:19;;;;;;;68.10;26.90;;;;;-1.60;98115.20;;;;111851;1241;41155;-61
2022/01/27 04:24:49;;;;;;;61.40;25.20;;;;;-1.60;98121.80;;;;111439;1244;41717;-61
2022/01/27 04:27:23;;;;;;;63.80;24.90;;;;;-1.64;98120.80;;;;111562;1242;42535;-60
2022/01/27 04:29:52;;;;;;;62.90;23.50;;;;;-1.66;98120.60;;;;111866;1241;41117;-60
2022/01/27 04:32:27;;;;;;;58.70;24.00;;;;;-1.70;98116.20;;;;111816;1241;41153;-59
2022/01/27 04:35:02;;;;;;;61.70;22.40;;;;;-1.70;98114.60;;;;111739;1241;41137;-60
2022/01/27 04:37:38;;;;;;;60.60;22.40;;;;;-1.68;98110.20;;;;111774;1241;41703;-59
2022/01/27 04:40:14;;;;;;;60.90;23.30;;;;;-1.66;98112.80;;;;111764;1241;41139;-58
2022/01/27 04:42:58;;;;;;;53.30;22.20;;;;;-1.62;98108.40;;;;111496;1243;41239;-59
2022/01/27 04:45:35;;;;;;;56.50;22.40;;;;;-1.60;98109.40;;;;111661;1241;41143;-61
2022/01/27 04:48:11;;;;;;;62.50;23.10;;;;;-1.60;98112.60;;;;111742;1242;41149;-60
2022/01/27 04:50:42;;;;;;;57.80;23.00;;;;;-1.60;98116.60;;;;111771;1240;41146;-60
2022/01/27 04:53:21;;;;;;;57.40;21.70;;;;;-1.60;98113.80;;;;111763;1241;42213;-61
2022/01/27 04:56:12;;;;;;;54.90;21.00;;;;;-1.60;98116.00;;;;111788;1241;42325;-64
2022/01/27 04:58:44;;;;;;;56.50;21.10;;;;;-1.60;98112.80;;;;111796;1241;40872;-60
2022/01/27 05:01:16;;;;;;;54.40;21.40;;;;;-1.60;98115.60;;;;111628;1242;41139;-60
2022/01/27 05:03:53;;;;;;;54.70;21.70;;;;;-1.60;98122.60;;;;111776;1241;41601;-62
2022/01/27 05:06:23;;;;;;;58.70;21.80;;;;;-1.60;98125.00;;;;111501;1241;41265;-63
2022/01/27 05:08:54;;;;;;;58.30;22.10;;;;;-1.60;98121.20;;;;111704;1241;41429;-62
2022/01/27 05:11:34;;;;;;;54.60;21.50;;;;;-1.60;98109.00;;;;111754;1241;41480;-62
2022/01/27 05:14:18;;;;;;;56.60;21.00;;;;;-1.60;98108.40;;;;111745;1241;41137;-62
2022/01/27 05:16:48;;;;;;;55.60;21.80;;;;;-1.60;98117.00;;;;111436;1244;42312;-64
2022/01/27 05:19:19;;;;;;;60.10;21.90;;;;;-1.60;98120.20;;;;111708;1242;41253;-64
2022/01/27 05:21:48;;;;;;;59.10;22.30;;;;;-1.60;98126.80;;;;111725;1241;41713;-63
2022/01/27 05:24:22;;;;;;;52.40;21.80;;;;;-1.60;98125.80;;;;111520;1244;41144;-62
2022/01/27 05:26:51;;;;;;;75.40;27.30;;;;;-1.60;98122.20;;;;111618;1244;41277;-63
2022/01/27 05:29:21;;;;;;;73.20;26.50;;;;;-1.60;98121.40;;;;111741;1242;41869;-64
2022/01/27 05:31:50;;;;;;;69.10;25.80;;;;;-1.62;98120.20;;;;111711;1241;41129;-62
2022/01/27 05:34:20;;;;;;;65.60;24.80;;;;;-1.60;98119.60;;;;111599;1243;41154;-62
2022/01/27 05:36:49;;;;;;;68.00;25.10;;;;;-1.60;98128.00;;;;111542;1243;41148;-62
2022/01/27 05:39:19;;;;;;;68.50;25.60;;;;;-1.60;98120.00;;;;111533;1242;42237;-62
2022/01/27 05:41:48;;;;;;;65.40;25.40;;;;;-1.60;98130.40;;;;111837;1241;41703;-65
2022/01/27 05:44:18;;;;;;;65.40;25.70;;;;;-1.60;98128.80;;;;111849;1241;41186;-63
2022/01/27 05:46:47;;;;;;;70.70;26.30;;;;;-1.60;98123.60;;;;111582;1244;41252;-62
2022/01/27 05:49:17;;;;;;;61.40;24.30;;;;;-1.60;98123.40;;;;111825;1241;41494;-62
2022/01/27 05:51:47;;;;;;;67.70;25.80;;;;;-1.60;98119.80;;;;111706;1241;41633;-62
2022/01/27 05:54:17;;;;;;;63.00;24.60;;;;;-1.60;98126.00;;;;111749;1241;41867;-61
2022/01/27 05:56:46;;;;;;;63.70;24.30;;;;;-1.60;98126.20;;;;111699;1241;41184;-62
2022/01/27 05:59:16;;;;;;;63.20;24.20;;;;;-1.60;98130.20;;;;111715;1241;41152;-61
2022/01/27 06:01:45;;;;;;;58.70;22.90;;;;;-1.60;98131.40;;;;111781;1241;41379;-59
2022/01/27 06:04:15;;;;;;;53.60;23.80;;;;;-1.60;98130.20;;;;111824;1242;41717;-61
2022/01/27 06:06:45;;;;;;;69.60;26.70;;;;;-1.60;98130.80;;;;111841;1241;42072;-62
2022/01/27 06:09:14;;;;;;;69.90;27.80;;;;;-1.60;98136.80;;;;111598;1241;41141;-59
2022/01/27 06:11:43;;;;;;;63.90;26.90;;;;;-1.60;98141.60;;;;111704;1242;41165;-62
2022/01/27 06:14:17;;;;;;;67.80;27.30;;;;;-1.56;98143.60;;;;111788;1241;41627;-62
2022/01/27 06:16:47;;;;;;;60.70;26.30;;;;;-1.52;98142.60;;;;111549;1242;41501;-61
2022/01/27 06:19:17;;;;;;;63.80;24.90;;;;;-1.50;98137.80;;;;111791;1241;41291;-61
2022/01/27 06:21:46;;;;;;;63.30;24.50;;;;;-1.50;98143.40;;;;111473;1243;41739;-63
2022/01/27 06:24:15;;;;;;;57.10;23.90;;;;;-1.52;98141.80;;;;111771;1241;41612;-61
2022/01/27 06:26:45;;;;;;;68.20;25.60;;;;;-1.50;98140.60;;;;111759;1241;41813;-61
2022/01/27 06:29:14;;;;;;;55.80;23.00;;;;;-1.50;98144.20;;;;111787;1241;41195;-60
2022/01/27 06:31:44;;;;;;;58.40;23.90;;;;;-1.50;98138.80;;;;111857;1241;41127;-59
2022/01/27 06:34:13;;;;;;;59.90;24.90;;;;;-1.50;98143.20;;;;111644;1242;41482;-62
2022/01/27 06:36:42;;;;;;;60.30;23.60;;;;;-1.50;98142.40;;;;111781;1241;41621;-62
2022/01/27 06:39:11;;;;;;;55.70;23.40;;;;;-1.50;98145.00;;;;111793;1241;41239;-63
2022/01/27 06:41:43;;;;;;;53.50;22.80;;;;;-1.48;98142.60;;;;111705;1241;41135;-63
2022/01/27 06:44:13;;;;;;;60.30;25.10;;;;;-1.40;98140.20;;;;111706;1241;41923;-60
2022/01/27 06:46:42;;;;;;;60.80;24.80;;;;;-1.40;98133.00;;;;111837;1241;42314;-59
2022/01/27 06:49:16;;;;;;;67.00;24.60;;;;;-1.40;98124.80;;;;111828;1241;42346;-59
2022/01/27 06:51:46;;;;;;;63.90;26.70;;;;;-1.34;98122.60;;;;111845;1241;41256;-60
2022/01/27 06:54:16;;;;;;;67.50;26.30;;;;;-1.30;98120.80;;;;111495;1241;41137;-61
2022/01/27 06:56:46;;;;;;;57.40;23.70;;;;;-1.30;98118.00;;;;111826;1241;41242;-61
2022/01/27 06:59:15;;;;;;;58.10;24.20;;;;;-1.30;98115.20;;;;111809;1241;41430;-63
2022/01/27 07:01:44;;;;;;;72.20;26.60;;;;;-1.30;98112.20;;;;111816;1241;41132;-62
2022/01/27 07:04:14;;;;;;;72.40;27.90;;;;;-1.20;98117.60;;;;111785;1241;41243;-62
2022/01/27 07:06:43;;;;;;;63.20;27.70;;;;;-1.20;98119.20;;;;111792;1241;41182;-62
2022/01/27 07:09:13;;;;;;;67.70;27.40;;;;;-1.20;98126.60;;;;111798;1241;41403;-62
2022/01/27 07:11:42;;;;;;;72.50;27.70;;;;;-1.20;98118.00;;;;111827;1241;41173;-62
2022/01/27 07:14:12;;;;;;;74.10;28.40;;;;;-1.16;98122.00;;;;111813;1241;41301;-61
2022/01/27 07:16:42;;;;;;;69.10;27.20;;;;;-1.10;98127.00;;;;111803;1241;42253;-62
2022/01/27 07:19:12;;;;;;;70.60;27.80;;;;;-1.10;98126.40;;;;111842;1241;41763;-61
2022/01/27 07:21:42;;;;;;;65.60;26.60;;;;;-1.10;98123.00;;;;111764;1241;41714;-59
2022/01/27 07:24:11;;;;;;;75.20;29.80;;;;;-1.08;98124.00;;;;111728;1241;41182;-61
2022/01/27 07:26:40;;;;;;;69.80;26.90;;;;;-1.00;98121.20;;;;111555;1241;41143;-63
2022/01/27 07:29:10;;;;;;;68.70;27.70;;;;;-1.00;98119.00;;;;111828;1241;42338;-62
2022/01/27 07:31:39;;;;;;;66.10;27.70;;;;;-1.00;98118.00;;;;111792;1241;41713;-60
2022/01/27 07:34:08;;;;;;;64.40;26.90;;;;;-0.90;98114.60;;;;111774;1242;41140;-60
2022/01/27 07:36:40;;;;;;;65.70;25.40;;;;;-0.90;98112.00;;;;111829;1241;41921;-60
2022/01/27 07:39:14;;;;;;;65.40;26.10;;;;;-0.90;98113.80;;;;111805;1241;41740;-59
2022/01/27 07:41:45;;;;;;;65.70;26.80;;;;;-0.90;98110.80;;;;111816;1240;42050;-62
2022/01/27 07:44:14;;;;;;;63.90;27.80;;;;;-0.80;98113.20;;;;111850;1241;41376;-62
2022/01/27 07:46:45;;;;;;;75.50;28.20;;;;;-0.80;98116.00;;;;111805;1241;41152;-62
2022/01/27 07:49:14;;;;;;;68.60;27.60;;;;;-0.74;98109.20;;;;111713;1241;41302;-62
2022/01/27 07:51:43;;;;;;;69.60;27.20;;;;;-0.70;98110.40;;;;111751;1241;41248;-61
2022/01/27 07:54:12;;;;;;;73.60;30.50;;;;;-0.68;98107.20;;;;111723;1241;41124;-60
2022/01/27 07:56:42;;;;;;;64.40;28.30;;;;;-0.60;98106.00;;;;111834;1241;42363;-64
2022/01/27 07:59:11;;;;;;;69.30;28.70;;;;;-0.60;98108.80;;;;111519;1244;41254;-61
2022/01/27 08:01:40;;;;;;;60.10;26.00;;;;;-0.52;98101.40;;;;111723;1241;41754;-59
2022/01/27 08:04:11;;;;;;;65.60;24.70;;;;;-0.50;98103.80;;;;111773;1241;41134;-58
2022/01/27 08:06:40;;;;;;;61.30;26.20;;;;;-0.40;98108.60;;;;111816;1241;41247;-61
2022/01/27 08:09:09;;;;;;;60.80;25.10;;;;;-0.40;98109.00;;;;111543;1242;41254;-61
2022/01/27 08:11:38;;;;;;;57.80;25.10;;;;;-0.30;98106.00;;;;111750;1241;41327;-61
2022/01/27 08:14:07;;;;;;;56.80;24.70;;;;;-0.22;98103.80;;;;111522;1243;41277;-62
2022/01/27 08:16:37;;;;;;;55.70;24.60;;;;;-0.20;98104.60;;;;111691;1242;41143;-63
2022/01/27 08:19:06;;;;;;;58.60;25.50;;;;;-0.20;98111.40;;;;111758;1241;41618;-63
2022/01/27 08:21:35;;;;;;;60.00;25.40;;;;;-0.10;98113.20;;;;111683;1241;41419;-62
2022/01/27 08:24:05;;;;;;;67.80;27.50;;;;;-0.10;98112.40;;;;111770;1242;41126;-60
2022/01/27 08:26:44;;;;;;;64.00;26.90;;;;;-0.10;98114.00;;;;111512;1241;41280;-61
2022/01/27 08:34:32;;;;;;;58.90;25.10;;;;;0.00;98115.20;;;;111783;1243;41587;-64
2022/01/27 08:37:05;;;;;;;66.00;27.00;;;;;0.00;98107.00;;;;111726;1241;42179;-61
2022/01/27 08:39:34;;;;;;;64.10;27.40;;;;;0.00;98114.20;;;;111770;1241;41600;-60
2022/01/27 08:42:05;;;;;;;62.00;27.90;;;;;0.06;98108.80;;;;111407;1245;41441;-62
2022/01/27 08:44:34;;;;;;;54.80;22.80;;;;;0.10;98109.60;;;;111534;1244;41251;-59
2022/01/27 08:47:05;;;;;;;53.30;22.00;;;;;0.10;98106.40;;;;111797;1241;41142;-64
2022/01/27 08:49:35;;;;;;;53.70;21.30;;;;;0.10;98108.00;;;;111769;1241;42367;-61
2022/01/27 08:52:04;;;;;;;57.90;24.20;;;;;0.10;98105.80;;;;111741;1241;41179;-62
2022/01/27 08:54:33;;;;;;;68.80;28.50;;;;;0.18;98113.40;;;;111505;1244;41144;-60
2022/01/27 08:57:02;;;;;;;70.10;30.00;;;;;0.20;98115.60;;;;111765;1241;41319;-60
2022/01/27 08:59:33;;;;;;;71.40;29.00;;;;;0.20;98120.40;;;;111829;1242;41166;-62
2022/01/27 09:02:02;;;;;;;72.30;29.10;;;;;0.30;98122.80;;;;111096;1243;591334;-62
2022/01/27 09:04:31;;;;;;;64.90;28.70;;;;;0.30;98128.00;;;;111492;1243;41342;-59
2022/01/27 09:07:01;;;;;;;64.80;27.90;;;;;0.30;98123.00;;;;111452;1242;41287;-62
2022/01/27 09:09:30;;;;;;;57.90;26.80;;;;;0.40;98121.40;;;;111739;1242;41138;-61
2022/01/27 09:12:00;;;;;;;57.20;25.90;;;;;0.40;98120.20;;;;111704;1242;41138;-63
2022/01/27 09:14:31;;;;;;;57.00;25.30;;;;;0.42;98119.80;;;;111774;1241;42476;-63
2022/01/27 09:17:00;;;;;;;;;;;;;0.50;98116.80;;;;111780;1241;42241;-60
2022/01/27 09:19:30;;;;;;;48.60;20.70;;;;;0.50;98116.00;;;;111807;1243;42167;-60
2022/01/27 09:21:59;;;;;;;47.60;21.50;;;;;0.58;98118.00;;;;111669;1241;41253;-62
2022/01/27 09:24:37;;;;;;;54.50;22.80;;;;;0.60;98115.60;;;;111651;1241;42013;-63
2022/01/27 09:27:07;;;;;;;53.90;22.40;;;;;0.60;98114.20;;;;111543;1243;41143;-61
2022/01/27 09:29:37;;;;;;;56.20;23.00;;;;;0.70;98100.00;;;;111501;1244;41149;-63
2022/01/27 09:32:06;;;;;;;54.60;22.80;;;;;0.70;98096.40;;;;111560;1242;41258;-60
2022/01/27 09:34:37;;;;;;;54.00;23.90;;;;;0.80;98098.40;;;;111774;1241;42368;-62
2022/01/27 09:37:07;;;;;;;51.40;22.90;;;;;0.80;98092.00;;;;111830;1241;41143;-61
2022/01/27 09:39:36;;;;;;;60.90;26.00;;;;;0.90;98091.20;;;;111856;1241;41160;-62
2022/01/27 09:42:07;;;;;;;62.40;24.40;;;;;0.90;98084.80;;;;111813;1241;41513;-62
2022/01/27 09:44:37;;;;;;;60.30;26.10;;;;;1.00;98092.20;;;;111789;1241;41179;-59
2022/01/27 09:47:13;;;;;;;54.40;23.50;;;;;1.00;98099.40;;;;111668;1241;41143;-61
2022/01/27 09:49:50;;;;;;;56.40;23.60;;;;;1.10;98097.00;;;;111617;1241;41157;-61
2022/01/27 09:52:20;;;;;;;51.00;22.00;;;;;1.20;98095.20;;;;111832;1241;41243;-59
2022/01/27 09:54:49;;;;;;;50.00;20.70;;;;;1.20;98093.20;;;;111776;1243;42294;-60
2022/01/27 09:57:18;;;;;;;46.30;20.00;;;;;1.26;98090.20;;;;111814;1241;41248;-61
2022/01/27 09:59:48;;;;;;;48.80;19.80;;;;;1.30;98089.20;;;;111756;1241;41459;-63
2022/01/27 10:02:21;;;;;;;48.60;19.00;;;;;1.30;98086.40;;;;111692;1241;41262;-62
2022/01/27 10:04:54;;;;;;;47.60;19.50;;;;;1.30;98089.80;;;;111733;1241;41632;-62
2022/01/27 10:07:32;;;;;;;51.00;21.40;;;;;1.30;98093.20;;;;111766;1241;41143;-63
2022/01/27 10:10:12;;;;;;;51.50;22.40;;;;;1.30;98092.80;;;;111726;1241;41124;-64
2022/01/27 10:12:49;;;;;;;51.70;20.90;;;;;1.38;98088.60;;;;111746;1243;41424;-61
2022/01/27 10:15:20;;;;;;;50.00;21.20;;;;;1.40;98084.60;;;;111713;1243;41142;-59
2022/01/27 10:18:06;;;;;;;51.70;21.60;;;;;1.40;98082.80;;;;111759;1241;41117;-61
2022/01/27 10:20:41;;;;;;;48.10;21.50;;;;;1.40;98084.20;;;;111585;1243;41414;-60
2022/01/27 10:23:17;;;;;;;55.80;22.20;;;;;1.40;98084.00;;;;111513;1243;41148;-60
2022/01/27 10:26:14;;;;;;;53.80;22.40;;;;;1.40;98089.40;;;;111757;1241;41612;-59
2022/01/27 10:29:07;;;;;;;52.70;23.60;;;;;1.40;98088.00;;;;111796;1239;41138;-61
2022/01/27 10:31:39;;;;;;;55.70;23.10;;;;;1.40;98081.80;;;;111797;1241;41438;-59
2022/01/27 10:34:10;;;;;;;57.50;23.20;;;;;1.40;98078.20;;;;111800;1241;41437;-59
2022/01/27 10:36:44;;;;;;;55.20;23.60;;;;;1.42;98071.00;;;;111822;1241;41827;-64
2022/01/27 10:39:16;;;;;;;62.80;25.20;;;;;1.40;98064.00;;;;111820;1241;41638;-59
2022/01/27 10:42:05;;;;;;;61.80;25.10;;;;;1.40;98064.20;;;;111758;1241;41143;-60
2022/01/27 10:44:44;;;;;;;55.80;24.00;;;;;1.40;98067.20;;;;111810;1241;41187;-60
2022/01/27 10:47:22;;;;;;;58.90;22.20;;;;;1.40;98064.20;;;;111509;1241;41174;-59
2022/01/27 10:50:00;;;;;;;51.90;21.50;;;;;1.50;98073.60;;;;111496;1241;41959;-61
2022/01/27 10:52:39;;;;;;;55.50;22.10;;;;;1.50;98071.80;;;;111749;1241;41268;-62
2022/01/27 10:55:13;;;;;;;48.50;20.50;;;;;1.58;98064.40;;;;111754;1241;41844;-60
2022/01/27 10:57:49;;;;;;;56.70;22.10;;;;;1.60;98057.20;;;;111403;1241;41148;-60
2022/01/27 11:00:21;;;;;;;53.90;21.70;;;;;1.62;98049.40;;;;111712;1241;42480;-62
2022/01/27 11:03:03;;;;;;;53.80;23.00;;;;;1.70;98047.40;;;;111642;1241;41172;-61
2022/01/27 11:05:40;;;;;;;55.80;23.00;;;;;1.72;98039.40;;;;111621;1243;41129;-65
2022/01/27 11:08:10;;;;;;;56.60;22.70;;;;;1.80;98038.80;;;;111658;1241;42121;-61
2022/01/27 11:10:41;;;;;;;47.10;22.00;;;;;1.90;98039.40;;;;111865;1241;41595;-62
2022/01/27 11:13:10;;;;;;;57.80;23.10;;;;;2.00;98035.60;;;;111816;1241;41250;-60
2022/01/27 11:15:41;;;;;;;51.50;22.70;;;;;2.00;98035.20;;;;111812;1241;41102;-63
2022/01/27 11:18:13;;;;;;;54.80;22.40;;;;;2.08;98026.20;;;;111535;1243;41216;-62
2022/01/27 11:20:59;;;;;;;;;;;;;2.10;98025.00;;;;111925;1241;41133;-60
2022/01/27 11:24:01;;;;;;;59.00;22.50;;;;;2.00;98021.60;;;;111781;1242;41253;-64
2022/01/27 11:26:33;;;;;;;53.10;23.20;;;;;2.00;98029.00;;;;111493;1241;41124;-61
2022/01/27 11:29:03;;;;;;;51.90;22.30;;;;;2.00;98037.20;;;;111477;1244;41245;-63
2022/01/27 11:31:57;;;;;;;59.10;22.80;;;;;2.00;98035.80;;;;111574;1242;41248;-59
2022/01/27 11:34:52;;;;;;;52.40;21.40;;;;;2.00;98025.80;;;;111788;1241;41580;-61
2022/01/27 11:37:32;;;;;;;57.30;22.50;;;;;1.90;98028.00;;;;111759;1241;42256;-63
2022/01/27 11:40:12;;;;;;;60.90;23.80;;;;;1.90;98025.00;;;;111401;1244;41199;-60
2022/01/27 11:42:57;;;;;;;57.30;23.40;;;;;1.80;98030.00;;;;111818;1241;41672;-60
2022/01/27 11:45:33;;;;;;;52.50;22.90;;;;;1.80;98012.00;;;;111484;1244;40928;-61
2022/01/27 11:48:13;;;;;;;52.00;21.40;;;;;1.80;98007.40;;;;111735;1241;42322;-59
2022/01/27 11:51:06;;;;;;;53.30;23.00;;;;;1.80;98001.80;;;;111841;1241;42523;-62
2022/01/27 11:53:50;;;;;;;54.70;23.70;;;;;1.80;97994.60;;;;111704;1241;41165;-61
2022/01/27 11:56:24;;;;;;;57.50;24.30;;;;;1.80;97996.40;;;;111705;1241;41172;-60
2022/01/27 11:58:58;;;;;;;57.60;23.80;;;;;1.80;97990.20;;;;111536;1244;41138;-60
2022/01/27 12:01:34;;;;;;;56.90;23.30;;;;;1.90;97984.40;;;;111808;1241;41603;-59
2022/01/27 12:04:07;;;;;;;52.10;22.80;;;;;1.90;97980.40;;;;111746;1241;41231;-62
2022/01/27 12:06:50;;;;;;;54.80;23.40;;;;;1.90;97986.40;;;;111771;1241;42095;-60
2022/01/27 12:09:20;;;;;;;49.20;20.30;;;;;2.00;97981.80;;;;111756;1241;41137;-64
2022/01/27 12:11:57;;;;;;;55.60;23.50;;;;;2.00;97978.80;;;;111779;1242;41588;-59
2022/01/27 12:14:31;;;;;;;50.00;20.70;;;;;2.00;97974.40;;;;111763;1241;41132;-63
2022/01/27 12:17:10;;;;;;;53.80;22.30;;;;;2.00;97963.80;;;;111448;1244;41130;-59
2022/01/27 12:20:08;;;;;;;55.10;21.90;;;;;2.00;97960.80;;;;111489;1244;42051;-61
2022/01/27 12:22:47;;;;;;;52.20;22.50;;;;;2.00;97956.00;;;;111863;1241;41121;-63
2022/01/27 12:25:17;;;;;;;56.20;23.20;;;;;2.00;97961.40;;;;111803;1241;41134;-59
2022/01/27 12:27:58;;;;;;;56.70;23.50;;;;;1.94;97953.80;;;;111807;1241;41195;-61
2022/01/27 12:30:29;;;;;;;51.30;21.70;;;;;1.90;97953.60;;;;111753;1244;41667;-64
2022/01/27 12:32:59;;;;;;;57.80;22.60;;;;;1.90;97948.40;;;;111502;1243;42006;-62
2022/01/27 12:35:28;;;;;;;56.60;23.60;;;;;1.96;97947.80;;;;111469;1244;42686;-63
2022/01/27 12:37:57;;;;;;;53.90;23.20;;;;;2.00;97948.00;;;;111470;1243;41712;-62
2022/01/27 12:40:30;;;;;;;52.00;22.30;;;;;2.00;97948.00;;;;111794;1241;41573;-61
2022/01/27 12:43:12;;;;;;;50.00;20.30;;;;;2.00;97943.40;;;;111524;1241;42930;-62
2022/01/27 12:45:44;;;;;;;46.10;20.40;;;;;2.00;97941.60;;;;111790;1241;41130;-61
2022/01/27 12:48:20;;;;;;;49.60;21.00;;;;;2.00;97933.60;;;;111725;1241;41893;-63
2022/01/27 12:50:57;;;;;;;44.30;20.00;;;;;2.00;97934.60;;;;111794;1241;41637;-61
2022/01/27 12:53:29;;;;;;;52.90;21.40;;;;;2.00;97917.20;;;;111754;1243;41590;-61
2022/01/27 12:56:07;;;;;;;54.80;21.70;;;;;2.00;97914.00;;;;111747;1241;41130;-60
2022/01/27 12:58:38;;;;;;;56.70;23.20;;;;;2.00;97915.40;;;;111490;1241;41149;-61